Time;durP1;ratioP1;P1;durP2;ratioP2;P2;SDS_P1;SDS_P2;PMS_P1;PMS_P2;Temp;Humidity;BMP_temperature;BMP_pressure;BME280_temperature;BME280_humidity;BME280_pressure;Samples;Min_cycle;Max_cycle;Signal;HPM_P1;HPM_P2
2022/01/16 00:01:58;;;;;;;28.50;19.73;;;;;;;1.22;100.00;100929.94;5031073;28;20284;-57
2022/01/16 00:04:24;;;;;;;24.60;18.23;;;;;;;1.26;100.00;100899.47;5056275;28;20243;-59
2022/01/16 00:06:50;;;;;;;23.13;16.50;;;;;;;1.04;100.00;100913.94;5043828;28;20622;-58
2022/01/16 00:09:16;;;;;;;18.90;14.83;;;;;;;1.06;100.00;100906.31;5052290;28;20250;-59
2022/01/16 00:11:42;;;;;;;19.10;14.27;;;;;;;1.12;100.00;100913.91;5030797;28;20641;-58
2022/01/16 00:14:09;;;;;;;19.13;13.80;;;;;;;1.15;100.00;100936.69;5031854;28;20171;-59
2022/01/16 00:16:35;;;;;;;17.90;12.70;;;;;;;1.39;100.00;100938.31;5034079;28;20236;-58
2022/01/16 00:19:00;;;;;;;18.07;13.13;;;;;;;1.47;100.00;100947.59;5035639;28;20177;-59
2022/01/16 00:21:32;;;;;;;20.27;13.80;;;;;;;1.54;100.00;100944.16;5032739;28;20308;-58
2022/01/16 00:23:58;;;;;;;18.23;12.63;;;;;;;1.27;100.00;100934.13;5030699;28;20270;-59
2022/01/16 00:26:24;;;;;;;17.73;13.47;;;;;;;1.25;100.00;100925.69;5036689;28;20199;-58
2022/01/16 00:28:51;;;;;;;20.20;13.27;;;;;;;1.32;100.00;100908.78;5051679;28;20175;-59
2022/01/16 00:31:18;;;;;;;18.03;12.40;;;;;;;1.28;100.00;100920.59;5015186;28;20337;-59
2022/01/16 00:33:44;;;;;;;19.37;13.50;;;;;;;1.17;100.00;100913.91;5045863;28;20174;-58
2022/01/16 00:36:11;;;;;;;20.70;13.70;;;;;;;1.27;100.00;100893.56;4997607;28;1069156;-58
2022/01/16 00:38:42;;;;;;;24.83;14.67;;;;;;;1.27;100.00;100887.66;5052765;28;21079;-58
2022/01/16 00:41:08;;;;;;;20.20;13.70;;;;;;;1.19;100.00;100912.19;5041847;28;20716;-59
2022/01/16 00:43:33;;;;;;;23.10;15.13;;;;;;;1.29;100.00;100899.47;5050997;28;20230;-59
2022/01/16 00:45:58;;;;;;;26.53;16.47;;;;;;;1.35;100.00;100898.59;5052432;28;20227;-59
2022/01/16 00:48:24;;;;;;;23.70;15.20;;;;;;;0.99;100.00;100909.69;5069255;28;20268;-59
2022/01/16 00:50:49;;;;;;;23.03;17.07;;;;;;;0.80;100.00;100909.72;5061892;28;20275;-59
2022/01/16 00:53:14;;;;;;;25.43;17.60;;;;;;;1.02;100.00;100930.81;5068907;28;20249;-59
2022/01/16 00:55:41;;;;;;;27.13;17.37;;;;;;;0.96;100.00;100906.31;5052148;28;20618;-60
2022/01/16 00:58:06;;;;;;;30.07;18.50;;;;;;;1.22;100.00;100928.22;5066990;28;20706;-59
2022/01/16 01:00:33;;;;;;;26.90;18.57;;;;;;;1.18;100.00;100916.41;5061716;28;20316;-60
2022/01/16 01:03:02;;;;;;;28.80;20.17;;;;;;;1.25;100.00;100918.09;5071332;28;20194;-60
2022/01/16 01:05:28;;;;;;;35.37;22.30;;;;;;;1.24;100.00;100924.00;5071075;28;20200;-59
2022/01/16 01:07:54;;;;;;;33.53;21.93;;;;;;;1.22;100.00;100929.94;5072213;28;20697;-60
2022/01/16 01:10:27;;;;;;;32.40;21.63;;;;;;;1.25;100.00;100907.97;5061661;28;20226;-59
2022/01/16 01:12:54;;;;;;;35.63;23.03;;;;;;;1.34;100.00;100909.63;5064837;28;20648;-59
2022/01/16 01:15:30;;;;;;;37.00;23.20;;;;;;;1.33;100.00;100899.47;5071841;28;20256;-58
2022/01/16 01:17:56;;;;;;;40.37;23.77;;;;;;;1.29;100.00;100908.78;5072006;28;20175;-58
2022/01/16 01:20:24;;;;;;;44.43;24.07;;;;;;;1.09;100.00;100927.41;5061856;28;20234;-57
2022/01/16 01:22:52;;;;;;;43.20;25.77;;;;;;;1.27;100.00;100923.97;5070748;28;20189;-59
2022/01/16 01:25:19;;;;;;;43.30;25.83;;;;;;;1.21;100.00;100918.94;5071616;28;20663;-58
2022/01/16 01:27:46;;;;;;;46.60;25.60;;;;;;;1.12;100.00;100870.81;5071760;28;20181;-57
2022/01/16 01:30:14;;;;;;;52.30;25.63;;;;;;;1.07;100.00;100835.34;5060939;28;20584;-59
2022/01/16 01:32:41;;;;;;;51.33;26.00;;;;;;;1.00;100.00;100830.31;5070606;28;20254;-59
2022/01/16 01:35:08;;;;;;;48.80;24.63;;;;;;;1.03;100.00;100832.81;5071326;28;20185;-59
2022/01/16 01:37:34;;;;;;;45.83;25.30;;;;;;;1.16;100.00;100831.09;5071543;28;20168;-59
2022/01/16 01:39:59;;;;;;;45.27;25.13;;;;;;;1.14;100.00;100831.09;5071546;28;20645;-59
2022/01/16 01:42:32;;;;;;;38.53;22.47;;;;;;;0.90;100.00;100859.91;5060428;28;20328;-58
2022/01/16 01:53:16;;;;;;;36.30;21.30;;;;;;;0.72;100.00;100897.09;5050715;28;20208;-58
2022/01/16 01:55:43;;;;;;;35.00;20.80;;;;;;;0.69;100.00;100904.66;5051244;28;20174;-59
2022/01/16 01:58:09;;;;;;;36.47;20.60;;;;;;;0.68;100.00;100909.75;5051262;28;20180;-59
2022/01/16 02:00:35;;;;;;;35.70;19.90;;;;;;;0.57;100.00;100907.19;5040619;28;20225;-59
2022/01/16 02:05:30;;;;;;;36.53;22.30;;;;;;;0.73;100.00;100902.97;5050471;28;20238;-60
2022/01/16 02:07:55;;;;;;;34.63;20.60;;;;;;;0.67;100.00;100893.72;5051032;28;20188;-60
2022/01/16 02:10:21;;;;;;;33.10;20.30;;;;;;;0.73;100.00;100908.91;5040685;28;20218;-59
2022/01/16 02:12:50;;;;;;;31.70;19.67;;;;;;;0.68;100.00;100923.22;5049788;28;20288;-59
2022/01/16 02:29:39;;;;;;;23.87;15.90;;;;;;;0.47;100.00;100927.47;5051043;28;20600;-58
2022/01/16 02:32:25;;;;;;;26.17;15.63;;;;;;;0.44;100.00;100922.38;5039451;28;20275;-59
2022/01/16 02:34:46;;;;;;;22.40;15.17;;;;;;;0.60;100.00;100924.94;5050433;28;20614;-59
2022/01/16 02:37:14;;;;;;;25.87;16.83;;;;;;;0.62;100.00;100918.16;5050962;28;20216;-59
2022/01/16 02:39:49;;;;;;;21.47;15.57;;;;;;;0.74;100.00;100904.66;5049780;28;20654;-58
2022/01/16 02:42:16;;;;;;;22.67;16.13;;;;;;;0.80;100.00;100905.50;5038832;28;20689;-58
2022/01/16 02:44:50;;;;;;;23.23;15.80;;;;;;;0.67;100.00;100897.91;5050346;28;20246;-58
2022/01/16 02:47:19;;;;;;;25.40;15.60;;;;;;;0.62;100.00;100896.25;5027209;28;20276;-59
2022/01/16 02:49:48;;;;;;;23.43;16.23;;;;;;;0.46;100.00;100897.09;5050440;28;20650;-59
2022/01/16 02:52:15;;;;;;;23.30;15.57;;;;;;;0.40;100.00;100897.09;5039061;28;20228;-58
2022/01/16 02:54:43;;;;;;;22.57;14.97;;;;;;;0.55;100.00;100884.41;5050170;28;20182;-59
2022/01/16 02:57:15;;;;;;;24.87;15.67;;;;;;;0.66;100.00;100875.97;5050791;28;20307;-59
2022/01/16 02:59:48;;;;;;;24.43;16.77;;;;;;;0.56;100.00;100873.47;5050674;28;20174;-58
2022/01/16 03:02:14;;;;;;;25.70;17.07;;;;;;;0.59;100.00;100873.44;5039000;28;20229;-58
2022/01/16 03:04:40;;;;;;;26.07;16.83;;;;;;;0.53;100.00;100870.91;5049681;28;20183;-58
2022/01/16 03:07:05;;;;;;;24.40;16.93;;;;;;;0.58;100.00;100865.84;5050700;28;20170;-57
2022/01/16 03:09:52;;;;;;;25.23;16.37;;;;;;;0.77;100.00;100864.13;5050589;28;20173;-58
2022/01/16 03:12:17;;;;;;;25.83;16.73;;;;;;;0.57;100.00;100871.75;5038755;28;20288;-58
2022/01/16 03:14:42;;;;;;;25.93;17.27;;;;;;;0.74;100.00;100867.50;5050252;28;20182;-58
2022/01/16 03:17:09;;;;;;;26.97;16.23;;;;;;;0.87;100.00;100875.09;5050452;28;20219;-57
2022/01/16 03:22:18;;;;;;;24.43;17.23;;;;;;;0.81;100.00;100860.75;5032706;28;20903;-58
2022/01/16 03:24:45;;;;;;;25.23;17.93;;;;;;;0.86;100.00;100848.94;5049957;28;20178;-58
2022/01/16 03:27:17;;;;;;;25.40;17.17;;;;;;;0.58;100.00;100860.78;5050315;28;20181;-59
2022/01/16 03:29:57;;;;;;;27.00;17.77;;;;;;;0.56;100.00;100854.88;5052801;28;20177;-58
2022/01/16 03:32:23;;;;;;;21.90;16.13;;;;;;;0.38;100.00;100866.69;5042520;28;20730;-59
2022/01/16 03:34:49;;;;;;;26.63;17.43;;;;;;;0.43;100.00;100875.13;5053484;28;20217;-58
2022/01/16 03:37:14;;;;;;;27.10;17.43;;;;;;;0.56;100.00;100882.72;5053903;28;20181;-60
2022/01/16 03:39:40;;;;;;;24.07;17.53;;;;;;;0.61;100.00;100874.28;5053819;28;20181;-59
2022/01/16 03:42:06;;;;;;;26.77;16.47;;;;;;;0.51;100.00;100872.63;5027296;28;20326;-59
2022/01/16 03:44:32;;;;;;;23.13;15.77;;;;;;;0.50;100.00;100855.75;5033620;28;20186;-59
2022/01/16 03:46:58;;;;;;;22.83;15.87;;;;;;;0.38;100.00;100859.09;5042717;28;20200;-58
2022/01/16 03:49:26;;;;;;;23.00;15.97;;;;;;;0.35;100.00;100853.19;5073503;28;20532;-59
2022/01/16 03:51:54;;;;;;;24.73;15.60;;;;;;;0.36;100.00;100863.34;5061857;28;20514;-59
2022/01/16 03:54:23;;;;;;;21.20;14.73;;;;;;;0.19;100.00;100852.34;5072834;28;20204;-58
2022/01/16 03:56:49;;;;;;;20.00;14.13;;;;;;;0.30;100.00;100851.53;5073423;28;20183;-58
2022/01/16 03:59:14;;;;;;;19.83;13.13;;;;;;;0.32;100.00;100848.97;5057288;28;20177;-58
2022/01/16 04:01:41;;;;;;;17.93;12.77;;;;;;;0.46;100.00;100842.25;5045180;28;20877;-58
2022/01/16 04:04:06;;;;;;;20.93;14.13;;;;;;;0.48;100.00;100835.50;5072682;28;20181;-59
2022/01/16 04:06:33;;;;;;;17.63;13.13;;;;;;;0.45;100.00;100822.81;5073035;28;20212;-59
2022/01/16 04:08:59;;;;;;;17.53;13.03;;;;;;;0.54;100.00;100826.19;5073023;28;20625;-57
2022/01/16 04:11:27;;;;;;;18.70;14.10;;;;;;;0.74;100.00;100810.97;5062147;28;20343;-58
2022/01/16 04:14:05;;;;;;;18.50;13.03;;;;;;;0.63;100.00;100804.25;5072460;28;20263;-58
2022/01/16 04:16:30;;;;;;;16.07;11.87;;;;;;;0.60;100.00;100796.63;5061496;28;20596;-58
2022/01/16 04:18:56;;;;;;;16.00;11.90;;;;;;;0.72;100.00;100798.31;5072611;28;20176;-58
2022/01/16 04:21:24;;;;;;;16.80;11.77;;;;;;;0.66;100.00;100800.84;5062043;28;20261;-58
2022/01/16 04:23:50;;;;;;;18.87;12.07;;;;;;;0.59;100.00;100794.94;5072263;28;20533;-58
2022/01/16 04:26:16;;;;;;;16.17;11.57;;;;;;;0.71;100.00;100791.56;5072884;28;20208;-58
2022/01/16 04:28:42;;;;;;;17.70;12.27;;;;;;;0.61;100.00;100788.19;5072867;28;20177;-58
2022/01/16 04:31:09;;;;;;;13.83;10.30;;;;;;;0.65;100.00;100796.63;5042111;28;20281;-58
2022/01/16 04:33:35;;;;;;;18.63;12.40;;;;;;;0.56;100.00;100804.22;5071094;28;20177;-57
2022/01/16 04:36:00;;;;;;;15.00;11.73;;;;;;;0.75;100.00;100803.34;5072363;28;20191;-58
2022/01/16 04:38:26;;;;;;;19.13;12.40;;;;;;;0.74;100.00;100816.84;5072765;28;20176;-58
2022/01/16 04:43:47;;;;;;;14.60;11.27;;;;;;;0.50;100.00;100832.09;5072091;28;20187;-58
2022/01/16 04:46:17;;;;;;;13.97;10.33;;;;;;;0.47;100.00;100838.88;5072396;28;20646;-58
2022/01/16 04:48:43;;;;;;;15.03;11.23;;;;;;;0.56;100.00;100840.53;5091757;28;20584;-58
2022/01/16 04:51:09;;;;;;;16.47;11.30;;;;;;;0.60;100.00;100848.97;5057103;28;20257;-58
2022/01/16 04:53:35;;;;;;;16.77;12.13;;;;;;;0.68;100.00;100843.91;5046023;28;20201;-58
2022/01/16 04:56:00;;;;;;;17.37;12.03;;;;;;;0.64;100.00;100840.53;5032496;28;20746;-58
2022/01/16 04:58:26;;;;;;;16.47;11.67;;;;;;;0.52;100.00;100835.47;5032369;28;20186;-58
2022/01/16 05:00:51;;;;;;;16.07;12.07;;;;;;;0.63;100.00;100842.22;5028302;28;20233;-58
2022/01/16 05:03:16;;;;;;;15.87;11.73;;;;;;;0.49;100.00;100833.78;5041380;28;20190;-58
2022/01/16 05:05:42;;;;;;;14.53;10.83;;;;;;;0.58;100.00;100825.34;5031783;28;20283;-58
2022/01/16 05:08:07;;;;;;;14.67;11.57;;;;;;;0.67;100.00;100837.13;5030045;28;20254;-57
2022/01/16 05:10:33;;;;;;;16.97;12.70;;;;;;;0.63;100.00;100837.16;5025960;28;20636;-57
2022/01/16 05:13:25;;;;;;;16.53;11.27;;;;;;;0.74;100.00;100838.81;5050994;28;20198;-57
2022/01/16 05:18:27;;;;;;;16.33;12.47;;;;;;;0.82;100.00;100828.66;5051940;28;20238;-57
2022/01/16 05:20:52;;;;;;;15.97;11.60;;;;;;;0.68;100.00;100848.97;5061150;28;20215;-57
2022/01/16 05:23:18;;;;;;;13.50;10.23;;;;;;;0.55;100.00;100840.56;5061368;28;20228;-57
2022/01/16 05:25:43;;;;;;;15.33;10.23;;;;;;;0.60;100.00;100844.75;5071236;28;20193;-57
2022/01/16 05:28:08;;;;;;;11.93;9.67;;;;;;;0.69;100.00;100845.59;5071558;28;20177;-58
2022/01/16 05:30:34;;;;;;;12.60;9.97;;;;;;;0.77;100.00;100849.78;5061533;28;20660;-58
2022/01/16 05:32:59;;;;;;;12.77;9.83;;;;;;;0.64;100.00;100850.66;5076787;28;20204;-57
2022/01/16 05:35:24;;;;;;;12.40;8.60;;;;;;;0.59;100.00;100848.13;5070965;28;20220;-59
2022/01/16 05:37:49;;;;;;;9.73;8.27;;;;;;;0.70;100.00;100848.09;5077259;28;20630;-59
2022/01/16 05:40:15;;;;;;;10.37;8.30;;;;;;;0.74;100.00;100846.41;5066421;28;20744;-58
2022/01/16 05:42:40;;;;;;;9.23;8.23;;;;;;;0.87;100.00;100835.41;5066433;28;20192;-58
2022/01/16 05:45:06;;;;;;;9.07;7.37;;;;;;;0.72;100.00;100846.44;5064032;28;20612;-59
2022/01/16 05:47:31;;;;;;;8.43;7.10;;;;;;;0.80;100.00;100854.00;5056114;28;20903;-58
2022/01/16 05:49:56;;;;;;;10.67;8.30;;;;;;;0.87;100.00;100854.81;5048217;28;20585;-58
2022/01/16 05:52:22;;;;;;;10.93;8.33;;;;;;;1.06;100.00;100853.09;5046562;28;20291;-58
2022/01/16 05:54:47;;;;;;;10.57;8.33;;;;;;;0.88;100.00;100851.44;5050617;28;20643;-57
2022/01/16 05:57:13;;;;;;;9.47;8.13;;;;;;;0.70;100.00;100853.19;5051203;28;20205;-58
2022/01/16 05:59:38;;;;;;;9.77;7.80;;;;;;;0.71;100.00;100857.41;5050427;28;20495;-57
2022/01/16 06:02:03;;;;;;;10.87;8.33;;;;;;;0.60;100.00;100859.09;5056719;28;20327;-59
2022/01/16 06:04:29;;;;;;;10.17;7.53;;;;;;;0.83;100.00;100873.41;5050953;28;20223;-58
2022/01/16 06:06:54;;;;;;;8.97;7.47;;;;;;;0.71;100.00;100872.59;5050985;28;20690;-57
2022/01/16 06:09:20;;;;;;;8.50;7.40;;;;;;;0.81;100.00;100868.34;5051106;28;20173;-56
2022/01/16 06:11:45;;;;;;;8.40;7.30;;;;;;;0.84;100.00;100873.41;5042833;28;20224;-58
2022/01/16 06:14:10;;;;;;;8.07;7.03;;;;;;;0.83;100.00;100866.66;5052824;28;20255;-57
2022/01/16 06:16:36;;;;;;;8.47;7.20;;;;;;;0.65;100.00;100870.06;5050480;28;20240;-58
2022/01/16 06:19:01;;;;;;;9.70;7.60;;;;;;;0.70;100.00;100860.78;5050929;28;20197;-57
2022/01/16 06:21:27;;;;;;;8.27;7.37;;;;;;;0.72;100.00;100863.28;5051850;28;20342;-57
2022/01/16 06:23:52;;;;;;;9.23;7.60;;;;;;;0.78;100.00;100859.09;5054964;28;20177;-57
2022/01/16 06:26:18;;;;;;;8.90;7.90;;;;;;;0.90;100.00;100867.50;5050662;28;20233;-57
2022/01/16 06:28:43;;;;;;;10.77;8.63;;;;;;;0.94;100.00;100862.44;5050585;28;20177;-57
2022/01/16 06:31:08;;;;;;;9.40;7.97;;;;;;;0.79;100.00;100865.84;5049352;28;20614;-58
2022/01/16 06:33:33;;;;;;;9.87;8.07;;;;;;;0.77;100.00;100869.19;5057032;28;20185;-58
2022/01/16 06:36:01;;;;;;;9.30;8.07;;;;;;;0.80;100.00;100866.66;5050606;28;20179;-57
2022/01/16 06:38:26;;;;;;;10.70;9.37;;;;;;;0.94;100.00;100870.03;5050987;28;20486;-58
2022/01/16 06:40:52;;;;;;;10.33;8.97;;;;;;;1.06;100.00;100880.97;5047290;28;20232;-58
2022/01/16 06:43:17;;;;;;;10.23;9.13;;;;;;;1.17;100.00;100883.50;5059365;28;20197;-58
2022/01/16 06:45:42;;;;;;;10.20;9.07;;;;;;;1.16;100.00;100892.75;5050300;28;20552;-58
2022/01/16 06:48:07;;;;;;;10.20;9.17;;;;;;;1.28;100.00;100902.03;5051015;28;20185;-58
2022/01/16 06:50:33;;;;;;;11.73;9.80;;;;;;;1.21;100.00;100907.97;5044610;28;20772;-58
2022/01/16 06:52:58;;;;;;;12.53;10.10;;;;;;;1.01;100.00;100910.56;5061974;28;20208;-59
2022/01/16 06:55:23;;;;;;;12.50;10.37;;;;;;;1.07;100.00;100911.38;5050446;28;20169;-59
2022/01/16 06:57:49;;;;;;;13.93;10.90;;;;;;;1.03;100.00;100893.63;5050723;28;20235;-58
2022/01/16 07:00:14;;;;;;;12.33;10.43;;;;;;;1.01;100.00;100887.75;5042009;28;20169;-59
2022/01/16 07:02:40;;;;;;;13.50;11.40;;;;;;;1.08;100.00;100895.31;5064074;28;20264;-58
2022/01/16 07:05:05;;;;;;;15.17;12.00;;;;;;;1.06;100.00;100902.06;5052917;28;20201;-57
2022/01/16 07:07:31;;;;;;;15.47;12.13;;;;;;;1.10;100.00;100903.78;5054514;28;20517;-59
2022/01/16 07:09:56;;;;;;;16.77;12.83;;;;;;;1.09;100.00;100914.75;5054426;28;20170;-58
2022/01/16 07:12:22;;;;;;;15.93;11.77;;;;;;;1.00;100.00;100921.53;5059739;28;20351;-58
2022/01/16 07:14:48;;;;;;;16.20;11.80;;;;;;;1.05;100.00;100920.66;5052770;28;20276;-60
2022/01/16 07:17:13;;;;;;;15.17;12.80;;;;;;;1.17;100.00;100919.78;5051519;28;20173;-58
2022/01/16 07:19:39;;;;;;;18.67;14.10;;;;;;;1.08;100.00;100935.00;5054192;28;20535;-58
2022/01/16 07:22:04;;;;;;;18.77;14.10;;;;;;;1.21;100.00;100935.84;5029299;28;20240;-59
2022/01/16 07:24:29;;;;;;;17.37;12.83;;;;;;;1.10;100.00;100941.78;5054051;28;20208;-59
2022/01/16 07:26:55;;;;;;;20.83;14.10;;;;;;;1.06;100.00;100942.63;5054182;28;20247;-58
2022/01/16 07:29:20;;;;;;;21.10;14.27;;;;;;;1.00;100.00;100942.63;5057892;28;20238;-58
2022/01/16 07:31:46;;;;;;;17.13;13.20;;;;;;;1.03;100.00;100952.78;5045880;28;20327;-59
2022/01/16 07:34:11;;;;;;;21.87;14.23;;;;;;;0.96;100.00;100946.84;5038315;28;20210;-58
2022/01/16 07:36:38;;;;;;;20.77;15.07;;;;;;;0.98;100.00;100958.69;5048830;28;20268;-58
2022/01/16 07:39:04;;;;;;;21.17;15.33;;;;;;;0.96;100.00;100959.53;5054137;28;20209;-58
2022/01/16 07:41:29;;;;;;;22.07;14.80;;;;;;;0.78;100.00;100962.94;5045594;28;20634;-58
2022/01/16 07:43:55;;;;;;;21.23;15.13;;;;;;;0.83;100.00;100970.50;5058414;28;20194;-58
2022/01/16 07:46:20;;;;;;;22.47;15.93;;;;;;;0.92;100.00;100972.22;5058103;28;20244;-57
2022/01/16 07:48:46;;;;;;;19.27;14.17;;;;;;;0.95;100.00;100980.63;5063909;28;20181;-58
2022/01/16 07:51:11;;;;;;;22.80;14.93;;;;;;;1.07;100.00;100986.56;5063125;28;20315;-58
2022/01/16 07:53:37;;;;;;;18.33;13.50;;;;;;;1.06;100.00;100993.28;5061506;28;20178;-58
2022/01/16 07:56:03;;;;;;;20.00;14.83;;;;;;;1.18;100.00;101000.06;5062573;28;20688;-58
2022/01/16 07:58:29;;;;;;;21.65;16.55;;;;;;;1.26;100.00;100992.44;5056902;28;20968;-57
2022/01/16 08:00:56;;;;;;;20.13;15.23;;;;;;;0.98;100.00;100992.47;5033864;28;20252;-58
2022/01/16 08:03:21;;;;;;;19.93;13.73;;;;;;;0.86;100.00;100990.78;5044832;28;20691;-58
2022/01/16 08:05:47;;;;;;;21.97;15.20;;;;;;;0.93;100.00;100994.13;5048679;28;20198;-59
2022/01/16 08:08:12;;;;;;;23.07;15.37;;;;;;;1.07;100.00;100992.47;5033758;28;20196;-58
2022/01/16 08:10:38;;;;;;;20.97;15.40;;;;;;;0.92;100.00;100995.84;5028073;28;20222;-57
2022/01/16 08:13:03;;;;;;;24.27;14.90;;;;;;;1.06;100.00;100989.94;5044336;28;20209;-58
2022/01/16 08:15:28;;;;;;;21.77;15.90;;;;;;;1.06;100.00;101007.66;5026977;28;20225;-59
2022/01/16 08:17:54;;;;;;;22.53;15.07;;;;;;;0.98;100.00;100994.16;5035517;28;20210;-57
2022/01/16 08:20:20;;;;;;;22.93;16.40;;;;;;;1.07;100.00;100968.81;5025989;28;20174;-61
2022/01/16 08:22:45;;;;;;;22.83;15.40;;;;;;;1.10;100.00;100969.66;5048928;28;20198;-58
2022/01/16 08:25:11;;;;;;;21.43;15.57;;;;;;;1.11;100.00;100975.56;5033163;28;20194;-58
2022/01/16 08:27:37;;;;;;;24.03;16.80;;;;;;;1.29;100.00;100979.78;5048856;28;20174;-57
2022/01/16 08:30:04;;;;;;;26.00;16.50;;;;;;;1.03;100.00;100984.84;5032472;28;20257;-59
2022/01/16 08:32:29;;;;;;;21.47;16.13;;;;;;;1.12;100.00;100985.69;4998338;28;20222;-59
2022/01/16 08:34:55;;;;;;;26.73;17.90;;;;;;;1.23;100.00;100988.22;5068197;28;20196;-58
2022/01/16 08:37:20;;;;;;;25.27;16.80;;;;;;;1.12;100.00;100987.38;5053172;28;20244;-57
2022/01/16 08:39:46;;;;;;;24.50;16.23;;;;;;;1.14;100.00;100993.28;5052887;28;20638;-59
2022/01/16 08:42:11;;;;;;;24.73;16.50;;;;;;;1.20;100.00;100993.28;5043817;28;20229;-59
2022/01/16 08:44:38;;;;;;;27.77;17.13;;;;;;;1.22;100.00;100994.13;5052747;28;20166;-58
2022/01/16 08:47:05;;;;;;;27.10;17.50;;;;;;;1.28;100.00;100996.66;5052626;28;20959;-59
2022/01/16 08:49:30;;;;;;;24.63;16.97;;;;;;;1.28;100.00;101011.84;5068235;28;20177;-57
2022/01/16 08:51:56;;;;;;;26.20;18.13;;;;;;;1.26;100.00;101003.41;5032168;28;20226;-59
2022/01/16 08:54:23;;;;;;;26.43;17.70;;;;;;;1.19;100.00;101011.03;5079466;28;20571;-57
2022/01/16 08:56:48;;;;;;;26.40;17.73;;;;;;;1.26;100.00;101022.84;5092840;28;20218;-58
2022/01/16 08:59:14;;;;;;;28.97;18.63;;;;;;;1.43;100.00;101025.38;5092738;28;20657;-59
2022/01/16 09:01:39;;;;;;;25.47;16.87;;;;;;;1.52;100.00;101025.34;5082489;28;20732;-58
2022/01/16 09:04:04;;;;;;;23.70;17.10;;;;;;;1.55;100.00;101019.41;5092050;28;20243;-58
2022/01/16 09:06:30;;;;;;;28.63;18.97;;;;;;;1.75;100.00;101019.38;5092732;28;20653;-58
2022/01/16 09:08:55;;;;;;;25.93;17.37;;;;;;;1.83;100.00;101019.34;5070425;28;20189;-58
2022/01/16 09:11:25;;;;;;;26.97;18.20;;;;;;;1.98;100.00;101026.06;5053881;28;20665;-59
2022/01/16 09:13:51;;;;;;;28.07;18.83;;;;;;;2.05;100.00;101030.25;5051709;28;20184;-58
2022/01/16 09:16:18;;;;;;;27.70;19.00;;;;;;;2.23;100.00;101031.84;5052255;28;20169;-58
2022/01/16 09:18:44;;;;;;;24.97;18.60;;;;;;;2.19;100.00;101041.16;5053140;28;20171;-58
2022/01/16 09:21:09;;;;;;;26.63;18.30;;;;;;;2.15;100.00;101047.13;5059656;28;20588;-58
2022/01/16 09:23:35;;;;;;;27.23;18.47;;;;;;;2.15;100.00;101049.66;5072077;28;20183;-58
2022/01/16 09:26:01;;;;;;;29.17;18.93;;;;;;;2.25;100.00;101047.94;5071173;28;20203;-57
2022/01/16 09:28:26;;;;;;;24.13;17.97;;;;;;;2.21;100.00;101047.09;5071760;28;20172;-58
2022/01/16 09:30:53;;;;;;;26.17;17.80;;;;;;;2.24;100.00;101048.78;5061204;28;20227;-58
2022/01/16 09:33:18;;;;;;;26.97;18.77;;;;;;;2.48;100.00;101047.81;5071571;28;20196;-58
2022/01/16 09:35:44;;;;;;;25.03;18.37;;;;;;;2.48;99.95;101060.50;5071295;28;20184;-58
2022/01/16 09:38:09;;;;;;;26.00;17.13;;;;;;;2.48;99.68;101054.56;5071666;28;20736;-57
2022/01/16 09:40:35;;;;;;;25.07;17.83;;;;;;;2.44;100.00;101058.81;5061107;28;20311;-58
2022/01/16 09:43:03;;;;;;;26.10;17.67;;;;;;;2.49;100.00;101056.25;5070651;28;20218;-57
2022/01/16 09:45:30;;;;;;;27.13;19.23;;;;;;;2.44;100.00;101041.03;5069727;28;20675;-60
2022/01/16 09:47:56;;;;;;;27.07;17.70;;;;;;;2.27;100.00;101046.22;5053395;28;20175;-57
2022/01/16 09:50:24;;;;;;;26.13;17.43;;;;;;;2.34;100.00;101057.19;5060784;28;20232;-58
2022/01/16 09:52:50;;;;;;;26.13;18.43;;;;;;;2.44;100.00;101063.06;5070284;28;20203;-58
2022/01/16 09:55:16;;;;;;;26.60;16.80;;;;;;;2.43;100.00;101072.38;5075486;28;20315;-59
2022/01/16 09:57:42;;;;;;;24.07;16.40;;;;;;;2.25;99.98;101069.06;5053082;28;20267;-58
2022/01/16 10:00:11;;;;;;;21.97;15.90;;;;;;;1.97;100.00;101085.25;5059335;28;20179;-59
2022/01/16 10:02:36;;;;;;;19.33;15.20;;;;;;;1.93;100.00;101079.34;5063038;28;20243;-58
2022/01/16 10:05:21;;;;;;;22.60;16.57;;;;;;;1.91;100.00;101086.09;5050978;28;20729;-59
2022/01/16 10:07:47;;;;;;;26.27;16.27;;;;;;;2.00;100.00;101087.78;5051156;28;20199;-58
2022/01/16 10:10:13;;;;;;;23.90;16.50;;;;;;;2.04;100.00;101089.47;5042143;28;20176;-58
2022/01/16 10:12:48;;;;;;;24.00;15.90;;;;;;;1.84;100.00;101084.47;5064890;28;20192;-59
2022/01/16 10:15:17;;;;;;;23.47;16.23;;;;;;;1.73;100.00;101082.78;5050796;28;20171;-57
2022/01/16 10:17:45;;;;;;;22.10;15.87;;;;;;;1.90;100.00;101079.38;5050863;28;20183;-59
2022/01/16 10:20:10;;;;;;;23.47;16.90;;;;;;;1.88;100.00;101079.34;5041685;28;20181;-59
2022/01/16 10:22:43;;;;;;;24.27;16.27;;;;;;;2.04;100.00;101070.00;5048177;28;20187;-58
2022/01/16 10:25:10;;;;;;;23.00;16.33;;;;;;;2.00;100.00;101081.03;5050619;28;20164;-58
2022/01/16 10:27:38;;;;;;;24.50;16.87;;;;;;;1.93;100.00;101084.41;5050931;28;20176;-58
2022/01/16 10:30:07;;;;;;;24.40;17.37;;;;;;;2.09;100.00;101087.75;5040896;28;20246;-58
2022/01/16 10:32:36;;;;;;;22.70;16.10;;;;;;;1.85;100.00;101078.50;5065362;28;20299;-59
2022/01/16 10:35:22;;;;;;;22.77;16.27;;;;;;;1.74;100.00;101083.63;5050365;28;20182;-58
2022/01/16 10:37:53;;;;;;;25.50;16.40;;;;;;;1.60;100.00;101081.97;5058780;28;20186;-58
2022/01/16 10:40:24;;;;;;;25.73;16.97;;;;;;;1.77;100.00;101089.56;5064574;28;20631;-57
2022/01/16 10:42:52;;;;;;;23.00;16.33;;;;;;;1.63;100.00;101083.66;5073687;28;20191;-59
2022/01/16 10:45:23;;;;;;;24.37;16.67;;;;;;;1.74;100.00;101073.50;5074574;28;20187;-58
2022/01/16 10:47:54;;;;;;;23.77;16.47;;;;;;;1.70;100.00;101077.72;5074997;28;20232;-57
2022/01/16 10:50:31;;;;;;;21.87;16.10;;;;;;;1.85;100.00;101068.38;5064505;28;20172;-59
2022/01/16 10:53:04;;;;;;;24.80;17.23;;;;;;;1.78;100.00;101070.09;5073470;28;20698;-57
2022/01/16 10:55:47;;;;;;;26.17;15.97;;;;;;;1.61;100.00;101075.19;5060932;28;20232;-59
2022/01/16 10:58:21;;;;;;;23.13;15.80;;;;;;;1.62;100.00;101074.34;5074240;28;20179;-58
2022/01/16 11:00:54;;;;;;;23.20;15.90;;;;;;;1.54;100.00;101081.97;5042530;28;20232;-56
2022/01/16 11:03:21;;;;;;;24.43;15.73;;;;;;;1.52;100.00;101068.44;5064205;28;20907;-57
2022/01/16 11:05:49;;;;;;;24.67;15.70;;;;;;;1.58;100.00;101063.38;5074238;28;20256;-59
2022/01/16 11:08:20;;;;;;;23.87;15.83;;;;;;;1.60;100.00;101070.97;5074284;28;20564;-58
2022/01/16 11:10:51;;;;;;;23.10;15.60;;;;;;;1.54;100.00;101058.28;5063438;28;20224;-58
2022/01/16 11:13:19;;;;;;;22.40;16.20;;;;;;;1.64;100.00;101064.19;5073337;28;20190;-59
2022/01/16 11:15:50;;;;;;;23.33;16.30;;;;;;;1.81;100.00;101061.63;5073033;28;20170;-58
2022/01/16 11:18:17;;;;;;;25.10;15.40;;;;;;;2.04;100.00;101064.09;5073978;28;20246;-59
2022/01/16 11:20:52;;;;;;;25.30;16.53;;;;;;;1.93;100.00;101069.19;5063432;28;20240;-58
2022/01/16 11:23:31;;;;;;;21.83;15.13;;;;;;;1.99;100.00;101069.19;5073014;28;20186;-58
2022/01/16 11:26:07;;;;;;;24.87;16.57;;;;;;;2.17;100.00;101067.41;5073747;28;20183;-57
2022/01/16 11:28:33;;;;;;;23.33;15.87;;;;;;;2.22;100.00;101063.16;5073538;28;20340;-57
2022/01/16 11:31:04;;;;;;;24.43;15.57;;;;;;;2.20;100.00;101072.50;5062866;28;20572;-59
2022/01/16 11:33:32;;;;;;;24.83;17.90;;;;;;;2.34;100.00;101057.19;5072051;28;20179;-57
2022/01/16 11:36:10;;;;;;;26.03;16.50;;;;;;;2.22;100.00;101064.03;5072090;28;20206;-59
2022/01/16 11:38:39;;;;;;;27.37;17.73;;;;;;;2.16;100.00;101064.03;5073774;28;20172;-60
2022/01/16 11:41:15;;;;;;;25.87;16.03;;;;;;;2.03;100.00;101067.47;5062578;28;20655;-58
2022/01/16 11:43:45;;;;;;;26.43;16.40;;;;;;;2.04;100.00;101062.38;5072936;28;20194;-58
2022/01/16 11:46:19;;;;;;;26.03;17.40;;;;;;;2.08;100.00;101064.09;5073225;28;20203;-58